Time;durP1;ratioP1;P1;durP2;ratioP2;P2;SDS_P1;SDS_P2;PMS_P1;PMS_P2;Temp;Humidity;BMP_temperature;BMP_pressure;BME280_temperature;BME280_humidity;BME280_pressure;Samples;Min_cycle;Max_cycle;Signal;HPM_P1;HPM_P2
2024/04/06 00:00:18;;;;;;;;;;;;;;;13.28;100.00;95888.13;4978345;28;19968;-72
2024/04/06 00:02:45;;;;;;;;;;;;;;;13.29;100.00;95875.44;4985159;28;19929;-74
2024/04/06 00:05:12;;;;;;;;;;;;;;;13.29;100.00;95870.03;4962040;28;21087;-75
2024/04/06 00:07:38;;;;;;;;;;;;;;;13.28;100.00;95865.72;4984086;28;20291;-75
2024/04/06 00:10:05;;;;;;;;;;;;;;;13.27;100.00;95854.13;4968570;28;19952;-75
2024/04/06 00:12:31;;;;;;;;;;;;;;;13.27;100.00;95847.91;4984497;28;19952;-73
2024/04/06 00:14:57;;;;;;;;;;;;;;;13.25;100.00;95846.28;4984946;28;19937;-75
2024/04/06 00:17:23;;;;;;;;;;;;;;;13.24;100.00;95849.28;4985168;28;20331;-76
2024/04/06 00:19:51;;;;;;;;;;;;;;;13.16;100.00;95856.13;4983857;28;19936;-72
2024/04/06 00:22:17;;;;;;;;;;;;;;;13.16;100.00;95863.41;4984780;28;19936;-74
2024/04/06 00:24:43;;;;;;;;;;;;;;;13.13;100.00;95864.81;4984454;28;20825;-74
2024/04/06 00:27:09;;;;;;;;;;;;;;;13.12;100.00;95859.66;4984636;28;19936;-74
2024/04/06 00:29:35;;;;;;;;;;;;;;;13.09;100.00;95847.53;4984736;28;19929;-74
2024/04/06 00:32:02;;;;;;;;;;;;;;;13.09;100.00;95847.53;4984556;28;19929;-76
2024/04/06 00:34:28;;;;;;;;;;;;;;;13.10;100.00;95838.34;4984731;28;19929;-74
2024/04/06 00:36:56;;;;;;;;;;;;;;;13.12;100.00;95844.28;4984585;28;19933;-72
2024/04/06 00:39:22;;;;;;;;;;;;;;;13.11;100.00;95831.06;4961793;28;19929;-73
2024/04/06 00:41:48;;;;;;;;;;;;;;;13.08;100.00;95837.81;4984217;28;20189;-72
2024/04/06 00:44:15;;;;;;;;;;;;;;;13.08;100.00;95835.13;4984480;28;19930;-74
2024/04/06 00:46:41;;;;;;;;;;;;;;;13.09;100.00;95831.34;4984495;28;19936;-73
2024/04/06 00:49:08;;;;;;;;;;;;;;;13.10;100.00;95832.16;4968395;28;19953;-76
2024/04/06 00:51:34;;;;;;;;;;;;;;;13.10;100.00;95832.94;4984511;28;19940;-73
2024/04/06 00:54:01;;;;;;;;;;;;;;;13.09;100.00;95836.72;4984784;28;19929;-74
2024/04/06 00:56:27;;;;;;;;;;;;;;;13.09;100.00;95839.44;4984344;28;19930;-75
2024/04/06 00:58:53;;;;;;;;;;;;;;;13.07;100.00;95838.94;4984177;28;20098;-73
2024/04/06 01:01:19;;;;;;;;;;;;;;;13.05;100.00;95843.81;4984386;28;19930;-73
2024/04/06 01:03:45;;;;;;;;;;;;;;;13.04;100.00;95847.59;4984307;28;20387;-75
2024/04/06 01:06:12;;;;;;;;;;;;;;;13.03;100.00;95851.38;4984167;28;19936;-74
2024/04/06 01:08:40;;;;;;;;;;;;;;;13.03;100.00;95851.38;4984330;28;19929;-72
2024/04/06 01:11:06;;;;;;;;;;;;;;;13.03;100.00;95848.69;4984177;28;20237;-75
2024/04/06 01:13:32;;;;;;;;;;;;;;;13.02;100.00;95852.47;4984350;28;20364;-75
2024/04/06 01:15:58;;;;;;;;;;;;;;;13.03;100.00;95848.69;4982798;28;19929;-73
2024/04/06 01:18:24;;;;;;;;;;;;;;;13.02;100.00;95852.47;4984056;28;19955;-74
2024/04/06 01:20:51;;;;;;;;;;;;;;;12.98;100.00;95845.25;4984312;28;19929;-74
2024/04/06 01:23:17;;;;;;;;;;;;;;;12.93;100.00;95839.91;4985405;28;19929;-74
2024/04/06 01:25:44;;;;;;;;;;;;;;;12.99;100.00;95847.66;4987762;28;20403;-74
2024/04/06 01:28:10;;;;;;;;;;;;;;;13.00;100.00;95848.47;4987745;28;19929;-74
2024/04/06 01:30:37;;;;;;;;;;;;;;;12.99;100.00;95849.56;4987985;28;19936;-73
2024/04/06 01:33:03;;;;;;;;;;;;;;;13.00;100.00;95849.28;4987339;28;19936;-75
2024/04/06 01:35:29;;;;;;;;;;;;;;;12.97;100.00;95855.22;4988081;28;20477;-73
2024/04/06 01:37:55;;;;;;;;;;;;;;;12.95;100.00;95862.81;4987707;28;19978;-75
2024/04/06 01:40:21;;;;;;;;;;;;;;;12.95;100.00;95868.19;4987526;28;19929;-75
2024/04/06 01:42:48;;;;;;;;;;;;;;;12.94;100.00;95871.19;4987829;28;19930;-73
2024/04/06 01:45:14;;;;;;;;;;;;;;;12.93;100.00;95877.69;4987516;28;19944;-74
2024/04/06 01:47:40;;;;;;;;;;;;;;;12.92;100.00;95874.19;4987489;28;19929;-73
2024/04/06 01:50:08;;;;;;;;;;;;;;;12.91;100.00;95861.78;4987405;28;20387;-73
2024/04/06 01:52:34;;;;;;;;;;;;;;;12.90;100.00;95870.97;4987493;28;19933;-73
2024/04/06 01:55:01;;;;;;;;;;;;;;;12.88;100.00;95860.44;4987323;28;19929;-73
2024/04/06 01:57:27;;;;;;;;;;;;;;;12.87;100.00;95866.94;4964166;28;20119;-74
2024/04/06 01:59:53;;;;;;;;;;;;;;;12.85;100.00;95858.34;4971154;28;19936;-75
2024/04/06 02:02:19;;;;;;;;;;;;;;;12.85;100.00;95857.53;4987064;28;19944;-75
2024/04/06 02:04:49;;;;;;;;;;;;;;;12.85;100.00;95852.13;4987285;28;19936;-74
2024/04/06 02:07:16;;;;;;;;;;;;;;;12.83;100.00;95843.53;4970953;28;19929;-74
2024/04/06 02:09:42;;;;;;;;;;;;;;;12.82;100.00;95847.31;4964465;28;19937;-75
2024/04/06 02:12:08;;;;;;;;;;;;;;;12.82;100.00;95841.91;4986034;28;19929;-73
2024/04/06 02:14:34;;;;;;;;;;;;;;;12.82;100.00;95841.91;4987163;28;20544;-74
2024/04/06 02:17:01;;;;;;;;;;;;;;;12.81;100.00;95848.38;4987158;28;19936;-75
2024/04/06 02:19:27;;;;;;;;;;;;;;;12.83;100.00;95854.31;4987242;28;19929;-73
2024/04/06 02:21:53;;;;;;;;;;;;;;;12.83;100.00;95844.31;4986984;28;19929;-72
2024/04/06 02:24:20;;;;;;;;;;;;;;;12.82;100.00;95844.59;4986934;28;20394;-73
2024/04/06 02:26:46;;;;;;;;;;;;;;;12.84;100.00;95847.84;4986721;28;19937;-72
2024/04/06 02:29:12;;;;;;;;;;;;;;;12.84;100.00;95855.91;4986634;28;19929;-74
2024/04/06 02:31:38;;;;;;;;;;;;;;;12.84;100.00;95855.91;4985866;28;20378;-75
2024/04/06 02:34:05;;;;;;;;;;;;;;;12.83;100.00;95855.13;4986326;28;19929;-72
2024/04/06 02:36:31;;;;;;;;;;;;;;;12.84;100.00;95861.31;4986714;28;20092;-74
2024/04/06 02:38:57;;;;;;;;;;;;;;;12.83;100.00;95857.00;4977958;28;20307;-73
2024/04/06 02:41:23;;;;;;;;;;;;;;;12.80;100.00;95865.66;4986511;28;19936;-75
2024/04/06 02:43:50;;;;;;;;;;;;;;;12.79;100.00;95869.44;4986716;28;19929;-73
2024/04/06 02:46:16;;;;;;;;;;;;;;;12.78;100.00;95873.25;4986387;28;19952;-75
2024/04/06 02:48:43;;;;;;;;;;;;;;;12.75;100.00;95865.72;4986475;28;19941;-75
2024/04/06 02:51:09;;;;;;;;;;;;;;;12.75;100.00;95868.41;4969725;28;19988;-73
2024/04/06 02:53:35;;;;;;;;;;;;;;;12.74;100.00;95874.91;4986507;28;19929;-75
2024/04/06 02:56:01;;;;;;;;;;;;;;;12.72;100.00;95872.47;5651791;23;19916;-75
2024/04/06 02:58:28;;;;;;;;;;;;;;;12.70;100.00;95871.19;5011567;28;19929;-75
2024/04/06 03:00:54;;;;;;;;;;;;;;;12.71;100.00;95865.47;5006470;28;20378;-75
2024/04/06 03:03:20;;;;;;;;;;;;;;;12.71;100.00;95865.47;5013417;28;19940;-73
2024/04/06 03:05:47;;;;;;;;;;;;;;;12.73;100.00;95854.41;5014652;28;19928;-74
2024/04/06 03:08:13;;;;;;;;;;;;;;;12.69;100.00;95854.19;5015585;28;19956;-75
2024/04/06 03:10:39;;;;;;;;;;;;;;;12.66;100.00;95848.53;5013575;28;20000;-72
2024/04/06 03:13:05;;;;;;;;;;;;;;;12.65;100.00;95846.94;5014922;28;19929;-73
2024/04/06 03:15:31;;;;;;;;;;;;;;;12.64;100.00;95848.81;5013179;28;19936;-73
2024/04/06 03:17:59;;;;;;;;;;;;;;;12.65;100.00;95836.16;5013639;28;19958;-75
2024/04/06 03:20:25;;;;;;;;;;;;;;;12.64;100.00;95831.88;5014293;28;19936;-72
2024/04/06 03:23:05;;;;;;;;;;;;;;;12.64;100.00;95834.56;5013272;28;19936;-75
2024/04/06 03:25:31;;;;;;;;;;;;;;;12.64;100.00;95845.34;5013197;28;19929;-73
2024/04/06 03:27:58;;;;;;;;;;;;;;;12.62;100.00;95855.59;5014331;28;19944;-73
2024/04/06 03:30:25;;;;;;;;;;;;;;;12.54;100.00;95850.81;5015094;28;19929;-73
2024/04/06 03:32:52;;;;;;;;;;;;;;;12.55;100.00;95852.44;5015842;28;19928;-74
2024/04/06 03:35:19;;;;;;;;;;;;;;;12.56;100.00;95843.25;5014058;28;19925;-73
2024/04/06 03:37:50;;;;;;;;;;;;;;;12.54;100.00;95846.25;5014123;28;19944;-76
2024/04/06 03:40:16;;;;;;;;;;;;;;;12.51;100.00;95848.69;5012858;28;19937;-72
2024/04/06 03:42:52;;;;;;;;;;;;;;;12.47;100.00;95851.16;5013036;28;19940;-74
2024/04/06 03:45:18;;;;;;;;;;;;;;;12.44;100.00;95846.31;5015382;28;19935;-74
2024/04/06 03:47:44;;;;;;;;;;;;;;;12.42;100.00;95845.78;5013746;28;19937;-73
2024/04/06 03:50:10;;;;;;;;;;;;;;;12.34;100.00;95833.75;5012592;28;19933;-72
2024/04/06 03:52:37;;;;;;;;;;;;;;;12.35;100.00;95824.56;5015038;28;19935;-73
2024/04/06 03:55:03;;;;;;;;;;;;;;;12.32;100.00;95830.53;5013661;28;19936;-75
2024/04/06 03:57:29;;;;;;;;;;;;;;;12.24;100.00;95814.97;5025301;28;19929;-74
2024/04/06 03:59:55;;;;;;;;;;;;;;;12.23;100.00;95817.94;5028031;28;19936;-74
2024/04/06 04:02:22;;;;;;;;;;;;;;;12.19;100.00;95817.72;5030650;28;19929;-74
2024/04/06 04:04:48;;;;;;;;;;;;;;;12.16;100.00;95807.50;5031554;28;19941;-73
2024/04/06 04:07:14;;;;;;;;;;;;;;;12.13;100.00;95808.03;5031676;28;20375;-75
2024/04/06 04:09:40;;;;;;;;;;;;;;;12.12;100.00;95814.56;5029434;28;19940;-72
2024/04/06 04:12:06;;;;;;;;;;;;;;;12.13;100.00;95824.22;5028074;28;19936;-74
2024/04/06 04:14:32;;;;;;;;;;;;;;;12.13;100.00;95829.59;5030145;28;19929;-73
2024/04/06 04:16:58;;;;;;;;;;;;;;;12.11;100.00;95831.78;5030727;28;19928;-72
2024/04/06 04:19:24;;;;;;;;;;;;;;;12.12;100.00;95833.41;5026111;28;19928;-74
2024/04/06 04:21:51;;;;;;;;;;;;;;;12.12;100.00;95832.59;5028775;28;19929;-75
2024/04/06 04:24:18;;;;;;;;;;;;;;;12.12;100.00;95841.50;5028334;28;19936;-73
2024/04/06 04:26:45;;;;;;;;;;;;;;;12.14;100.00;95849.28;5030057;28;20115;-75
2024/04/06 04:29:11;;;;;;;;;;;;;;;12.14;100.00;95851.97;5027237;28;19928;-72
2024/04/06 04:31:37;;;;;;;;;;;;;;;12.14;100.00;95863.56;5030034;28;19929;-72
2024/04/06 04:34:03;;;;;;;;;;;;;;;12.13;100.00;95867.31;5028094;28;19928;-75
2024/04/06 04:36:29;;;;;;;;;;;;;;;12.14;100.00;95871.63;5029618;28;19929;-72
2024/04/06 04:38:55;;;;;;;;;;;;;;;12.15;100.00;95870.56;5029882;28;19936;-74
2024/04/06 04:41:21;;;;;;;;;;;;;;;12.13;100.00;95872.72;5028368;28;19929;-74
2024/04/06 04:43:48;;;;;;;;;;;;;;;12.14;100.00;95879.72;5028838;28;19936;-74
2024/04/06 04:46:14;;;;;;;;;;;;;;;12.15;100.00;95892.13;5029448;28;19929;-74
2024/04/06 04:48:52;;;;;;;;;;;;;;;12.14;100.00;95884.31;5031804;28;19933;-73
2024/04/06 04:51:19;;;;;;;;;;;;;;;12.14;100.00;95903.97;5028821;28;19929;-75
2024/04/06 04:53:46;;;;;;;;;;;;;;;12.13;100.00;95906.97;5028543;28;19986;-74
2024/04/06 04:56:12;;;;;;;;;;;;;;;12.11;100.00;95918.03;5029897;28;20377;-71
2024/04/06 04:58:38;;;;;;;;;;;;;;;12.10;100.00;95919.09;5033281;28;20412;-74
2024/04/06 05:01:04;;;;;;;;;;;;;;;12.08;100.00;95914.00;5033934;28;19935;-73
2024/04/06 05:03:30;;;;;;;;;;;;;;;12.07;100.00;95914.25;5033318;28;19932;-74
2024/04/06 05:05:56;;;;;;;;;;;;;;;12.08;100.00;95918.56;5034310;28;19929;-72
2024/04/06 05:08:23;;;;;;;;;;;;;;;12.08;100.00;95922.06;5016737;28;19929;-73
2024/04/06 05:10:50;;;;;;;;;;;;;;;12.09;100.00;95920.19;5032391;28;20369;-72
2024/04/06 05:13:16;;;;;;;;;;;;;;;12.07;100.00;95912.38;5030401;28;20290;-74
2024/04/06 05:16:01;;;;;;;;;;;;;;;12.07;100.00;95908.88;5016571;28;20484;-74
2024/04/06 05:18:28;;;;;;;;;;;;;;;12.09;100.00;95904.81;5032296;28;19929;-74
2024/04/06 05:20:55;;;;;;;;;;;;;;;12.11;100.00;95899.16;5033457;28;19940;-74
2024/04/06 05:23:22;;;;;;;;;;;;;;;12.11;100.00;95906.44;5032524;28;19936;-75
2024/04/06 05:25:49;;;;;;;;;;;;;;;12.12;100.00;95899.97;5030755;28;19929;-75
2024/04/06 05:28:16;;;;;;;;;;;;;;;12.13;100.00;95901.59;5034055;28;20350;-72
2024/04/06 05:30:46;;;;;;;;;;;;;;;12.17;100.00;95899.94;5031866;28;19929;-75
2024/04/06 05:33:13;;;;;;;;;;;;;;;12.21;100.00;95901.75;5029851;28;19929;-73
2024/04/06 05:35:43;;;;;;;;;;;;;;;12.25;100.00;95900.13;5033519;28;20378;-73
2024/04/06 05:38:09;;;;;;;;;;;;;;;12.34;100.00;95900.34;5030310;28;19929;-73
2024/04/06 05:40:39;;;;;;;;;;;;;;;12.42;100.00;95913.19;5033328;28;19929;-73
2024/04/06 05:43:05;;;;;;;;;;;;;;;12.51;100.00;95919.59;5032804;28;20413;-75
2024/04/06 05:45:32;;;;;;;;;;;;;;;12.61;100.00;95924.91;5032822;28;19935;-73
2024/04/06 05:48:03;;;;;;;;;;;;;;;12.72;100.00;95931.81;5031532;28;19933;-74
2024/04/06 05:50:30;;;;;;;;;;;;;;;12.88;100.00;95932.47;5032154;28;19929;-75
2024/04/06 05:52:57;;;;;;;;;;;;;;;12.90;100.00;95926.81;5031226;28;19936;-72
2024/04/06 05:55:23;;;;;;;;;;;;;;;13.06;100.00;95936.38;5030783;28;20461;-72
2024/04/06 05:57:49;;;;;;;;;;;;;;;13.19;100.00;95933.84;5033255;28;19929;-73
2024/04/06 06:00:15;;;;;;;;;;;;;;;13.31;100.00;95941.53;5032301;28;19929;-74
2024/04/06 06:02:42;;;;;;;;;;;;;;;13.41;100.00;95941.41;5032519;28;19929;-75
2024/04/06 06:05:08;;;;;;;;;;;;;;;13.60;100.00;95941.44;5030563;28;19936;-75
2024/04/06 06:07:34;;;;;;;;;;;;;;;13.80;100.00;95949.34;5031315;28;19929;-74
2024/04/06 06:10:00;;;;;;;;;;;;;;;13.90;100.00;95953.78;5032109;28;19929;-73
2024/04/06 06:12:26;;;;;;;;;;;;;;;14.14;100.00;95954.53;5030336;28;19936;-72
2024/04/06 06:14:52;;;;;;;;;;;;;;;14.26;100.00;95937.88;5031355;28;19929;-75
2024/04/06 06:17:19;;;;;;;;;;;;;;;14.32;100.00;95931.28;5031407;28;19929;-75
2024/04/06 06:19:45;;;;;;;;;;;;;;;14.40;100.00;95925.25;5030589;28;19936;-73
2024/04/06 06:22:11;;;;;;;;;;;;;;;14.57;100.00;95925.53;5030946;28;19933;-75
2024/04/06 06:24:38;;;;;;;;;;;;;;;14.71;100.00;95923.66;5033813;28;19939;-74
2024/04/06 06:27:05;;;;;;;;;;;;;;;14.86;100.00;95919.09;5033028;28;19928;-74
2024/04/06 06:29:32;;;;;;;;;;;;;;;14.96;100.00;95913.50;5033126;28;19963;-73
2024/04/06 06:31:59;;;;;;;;;;;;;;;15.10;100.00;95906.22;5031401;28;19936;-74
2024/04/06 06:34:25;;;;;;;;;;;;;;;15.24;100.00;95901.59;5032422;28;20387;-75
2024/04/06 06:36:51;;;;;;;;;;;;;;;15.37;100.00;95902.72;5031610;28;19929;-76
2024/04/06 06:39:17;;;;;;;;;;;;;;;15.58;100.00;95907.44;5032371;28;19936;-76
2024/04/06 06:41:43;;;;;;;;;;;;;;;15.66;100.00;95897.00;5030479;28;19935;-74
2024/04/06 06:44:09;;;;;;;;;;;;;;;15.70;100.00;95892.59;5033409;28;20363;-74
2024/04/06 06:46:35;;;;;;;;;;;;;;;15.79;100.00;95879.91;5031356;28;20477;-77
2024/04/06 06:49:02;;;;;;;;;;;;;;;15.90;100.00;95876.69;5033131;28;20309;-74
2024/04/06 06:51:28;;;;;;;;;;;;;;;16.07;100.00;95869.84;5030058;28;19936;-76
2024/04/06 06:53:54;;;;;;;;;;;;;;;16.42;100.00;95860.03;5031277;28;19929;-77
2024/04/06 06:56:22;;;;;;;;;;;;;;;17.04;100.00;95852.75;5029972;28;19929;-77
2024/04/06 06:58:48;;;;;;;;;;;;;;;17.72;100.00;95835.91;5032280;28;19929;-74
2024/04/06 07:01:15;;;;;;;;;;;;;;;18.26;100.00;95814.66;5031115;28;19929;-74
2024/04/06 07:03:41;;;;;;;;;;;;;;;18.18;100.00;95810.03;5033967;28;20317;-75
2024/04/06 07:06:08;;;;;;;;;;;;;;;18.17;100.00;95798.34;5028598;28;19942;-74
2024/04/06 07:08:34;;;;;;;;;;;;;;;17.91;100.00;95783.94;5031076;28;20294;-73
2024/04/06 07:11:04;;;;;;;;;;;;;;;17.49;100.00;95790.91;5029227;28;19936;-75
2024/04/06 07:13:30;;;;;;;;;;;;;;;17.35;100.00;95804.63;5031139;28;19935;-75
2024/04/06 07:16:00;;;;;;;;;;;;;;;17.40;100.00;95804.47;5029392;28;20291;-76
2024/04/06 07:18:26;;;;;;;;;;;;;;;17.48;100.00;95816.47;5029402;28;19929;-74
2024/04/06 07:20:52;;;;;;;;;;;;;;;17.63;100.00;95824.22;5013206;28;19929;-74
2024/04/06 07:23:19;;;;;;;;;;;;;;;17.58;100.00;95824.34;5030599;28;19929;-74
2024/04/06 07:25:45;;;;;;;;;;;;;;;17.76;100.00;95825.97;5029924;28;20325;-73
2024/04/06 07:28:11;;;;;;;;;;;;;;;17.94;100.00;95826.81;5030924;28;19933;-77
2024/04/06 07:30:37;;;;;;;;;;;;;;;17.83;100.00;95820.88;5030017;28;19929;-76
2024/04/06 07:33:04;;;;;;;;;;;;;;;17.88;100.00;95820.75;5029777;28;19936;-76
2024/04/06 07:35:30;;;;;;;;;;;;;;;17.92;100.00;95825.53;5032076;28;19937;-73
2024/04/06 07:37:56;;;;;;;;;;;;;;;17.90;100.00;95817.69;5032415;28;20294;-76
2024/04/06 07:40:22;;;;;;;;;;;;;;;18.12;100.00;95822.16;5035664;28;19936;-75
2024/04/06 07:42:49;;;;;;;;;;;;;;;18.18;100.00;95818.97;5034957;28;19928;-73
2024/04/06 07:45:15;;;;;;;;;;;;;;;18.11;100.00;95807.78;5030649;28;19929;-78
2024/04/06 07:47:41;;;;;;;;;;;;;;;18.12;100.00;95814.00;5030353;28;19933;-75
2024/04/06 07:50:07;;;;;;;;;;;;;;;18.11;100.00;95815.16;5030130;28;20279;-76
2024/04/06 07:52:34;;;;;;;;;;;;;;;18.10;100.00;95821.69;5028492;28;20390;-76
2024/04/06 07:55:00;;;;;;;;;;;;;;;18.31;100.00;95819.13;5028362;28;19936;-75
2024/04/06 07:57:27;;;;;;;;;;;;;;;18.53;100.00;95824.38;5013273;28;19951;-77
2024/04/06 07:59:55;;;;;;;;;;;;;;;18.71;100.00;95819.72;5030314;28;19936;-76
2024/04/06 08:02:22;;;;;;;;;;;;;;;18.65;100.00;95821.81;5030274;28;19940;-76
2024/04/06 08:04:48;;;;;;;;;;;;;;;18.80;100.00;95812.31;5030880;28;19929;-76
2024/04/06 08:07:14;;;;;;;;;;;;;;;18.86;100.00;95811.81;5030649;28;19936;-75
2024/04/06 08:09:40;;;;;;;;;;;;;;;19.04;100.00;95813.38;5027260;28;19936;-75
2024/04/06 08:12:06;;;;;;;;;;;;;;;19.13;100.00;95821.53;5030362;28;19936;-75
2024/04/06 08:14:33;;;;;;;;;;;;;;;19.12;100.00;95822.63;5030852;28;19929;-75
2024/04/06 08:16:59;;;;;;;;;;;;;;;19.29;100.00;95821.75;5029147;28;19929;-75
2024/04/06 08:19:25;;;;;;;;;;;;;;;19.18;100.00;95828.69;5031142;28;20275;-75
2024/04/06 08:21:51;;;;;;;;;;;;;;;19.16;100.00;95830.94;5028445;28;20196;-76
2024/04/06 08:24:17;;;;;;;;;;;;;;;19.28;100.00;95834.59;5029252;28;19936;-75
2024/04/06 08:26:44;;;;;;;;;;;;;;;19.25;100.00;95845.34;5029665;28;19929;-75
2024/04/06 08:29:10;;;;;;;;;;;;;;;19.44;100.00;95843.00;5028962;28;20298;-75
2024/04/06 08:31:36;;;;;;;;;;;;;;;19.60;100.00;95848.72;5028622;28;19936;-75
2024/04/06 08:34:03;;;;;;;;;;;;;;;19.65;100.00;95854.78;5028723;28;19929;-76
2024/04/06 08:36:30;;;;;;;;;;;;;;;19.90;100.00;95860.41;5029618;28;19935;-76
2024/04/06 08:38:56;;;;;;;;;;;;;;;19.98;100.00;95862.28;5029433;28;19947;-76
2024/04/06 08:41:24;;;;;;;;;;;;;;;20.28;100.00;95854.84;5030376;28;19944;-76
2024/04/06 08:43:54;;;;;;;;;;;;;;;20.34;100.00;95856.28;5028659;28;20201;-77
2024/04/06 08:46:23;;;;;;;;;;;;;;;20.38;100.00;95854.50;5027286;28;19929;-76
2024/04/06 08:48:50;;;;;;;;;;;;;;;20.78;100.00;95857.47;5029477;28;19929;-76
2024/04/06 08:51:16;;;;;;;;;;;;;;;20.85;100.00;95857.72;5029100;28;19929;-76
2024/04/06 08:53:44;;;;;;;;;;;;;;;20.87;100.00;95860.94;5030830;28;20457;-76
2024/04/06 08:56:13;;;;;;;;;;;;;;;20.83;100.00;95871.72;5026934;28;19929;-75
2024/04/06 08:58:39;;;;;;;;;;;;;;;21.06;100.00;95874.06;5029228;28;20377;-76
2024/04/06 09:01:05;;;;;;;;;;;;;;;20.98;100.00;95878.47;5028156;28;20759;-76
2024/04/06 09:03:31;;;;;;;;;;;;;;;20.84;100.00;95884.25;5028779;28;20488;-76
2024/04/06 09:05:58;;;;;;;;;;;;;;;20.90;100.00;95882.91;5029703;28;19932;-75
2024/04/06 09:08:24;;;;;;;;;;;;;;;21.16;100.00;95871.72;5028574;28;19936;-76
2024/04/06 09:10:56;;;;;;;;;;;;;;;21.30;100.00;95879.63;5025856;28;19936;-76
2024/04/06 09:13:22;;;;;;;;;;;;;;;21.37;100.00;95879.84;5029580;28;19933;-76
2024/04/06 09:15:49;;;;;;;;;;;;;;;21.49;100.00;95857.97;5028128;28;19987;-76
2024/04/06 09:18:16;;;;;;;;;;;;;;;21.64;100.00;95875.63;5027599;28;19979;-75
2024/04/06 09:20:42;;;;;;;;;;;;;;;21.83;100.00;95875.09;5026691;28;19940;-76
2024/04/06 09:23:08;;;;;;;;;;;;;;;21.83;100.00;95883.28;5028429;28;19936;-76
2024/04/06 09:25:34;;;;;;;;;;;;;;;21.88;100.00;95874.84;5030490;28;19929;-76
2024/04/06 09:28:03;;;;;;;;;;;;;;;21.78;100.00;95887.03;5028911;28;19987;-75
2024/04/06 09:30:32;;;;;;;;;;;;;;;21.44;100.00;95907.44;5026579;28;20381;-75
2024/04/06 09:33:00;;;;;;;;;;;;;;;21.63;100.00;95915.06;5029055;28;20619;-75
2024/04/06 09:35:28;;;;;;;;;;;;;;;21.62;100.00;95908.03;5029303;28;19936;-76
2024/04/06 09:37:54;;;;;;;;;;;;;;;21.68;100.00;95898.47;5027857;28;19929;-76
2024/04/06 09:40:21;;;;;;;;;;;;;;;21.88;100.00;95894.78;5030165;28;19929;-75
2024/04/06 09:42:47;;;;;;;;;;;;;;;22.10;100.00;95886.13;5028929;28;19929;-76
2024/04/06 09:45:14;;;;;;;;;;;;;;;22.21;100.00;95891.91;5031244;28;19936;-76
2024/04/06 09:47:40;;;;;;;;;;;;;;;22.06;100.00;95895.41;5049075;28;20311;-76
2024/04/06 09:50:07;;;;;;;;;;;;;;;22.20;100.00;95886.81;5030055;28;20245;-75
2024/04/06 09:52:34;;;;;;;;;;;;;;;22.16;100.00;95886.69;5031707;28;19936;-75
2024/04/06 09:55:00;;;;;;;;;;;;;;;22.16;100.00;95891.38;5033374;28;19929;-75
2024/04/06 09:57:26;;;;;;;;;;;;;;;22.41;100.00;95890.19;5032484;28;19936;-76
2024/04/06 10:00:04;;;;;;;;;;;;;;;22.38;100.00;95902.63;5031212;28;19928;-76
2024/04/06 10:02:34;;;;;;;;;;;;;;;22.47;100.00;95894.28;5031893;28;20263;-75
2024/04/06 10:05:05;;;;;;;;;;;;;;;22.41;100.00;95904.69;5030919;28;19935;-76
2024/04/06 10:07:33;;;;;;;;;;;;;;;21.98;100.00;95926.44;5031002;28;19929;-76
2024/04/06 10:10:06;;;;;;;;;;;;;;;22.10;100.00;95913.50;5031954;28;20301;-76
2024/04/06 10:12:46;;;;;;;;;;;;;;;22.32;100.00;95920.44;5030381;28;19933;-76
2024/04/06 10:15:13;;;;;;;;;;;;;;;22.26;100.00;95913.63;5031516;28;19941;-76
2024/04/06 10:17:45;;;;;;;;;;;;;;;22.30;100.00;95917.25;5032339;28;20374;-76
2024/04/06 10:20:13;;;;;;;;;;;;;;;22.01;100.00;95983.22;5030210;28;19929;-75
2024/04/06 10:22:48;;;;;;;;;;;;;;;22.25;100.00;95975.00;5013621;28;19941;-76
2024/04/06 10:25:17;;;;;;;;;;;;;;;22.14;100.00;96017.66;5014188;28;19936;-76
2024/04/06 10:27:43;;;;;;;;;;;;;;;22.29;100.00;96041.63;5032793;28;19937;-76
2024/04/06 10:30:10;;;;;;;;;;;;;;;22.41;100.00;96038.91;5030643;28;19929;-75
2024/04/06 10:32:37;;;;;;;;;;;;;;;22.11;100.00;96048.47;5034891;28;19952;-75
2024/04/06 10:35:04;;;;;;;;;;;;;;;22.53;100.00;96040.81;5014491;28;19929;-72
2024/04/06 10:37:30;;;;;;;;;;;;;;;22.69;100.00;96038.19;5031050;28;19951;-76
2024/04/06 10:39:56;;;;;;;;;;;;;;;22.65;100.00;96037.25;5031109;28;19939;-74
2024/04/06 10:42:26;;;;;;;;;;;;;;;22.67;100.00;96034.97;5030690;28;19928;-75
2024/04/06 10:44:52;;;;;;;;;;;;;;;22.72;100.00;96032.03;5031341;28;19940;-73
2024/04/06 10:47:18;;;;;;;;;;;;;;;22.82;100.00;96037.03;5030238;28;19929;-77
2024/04/06 10:49:48;;;;;;;;;;;;;;;22.93;100.00;96043.66;5014820;28;19936;-75
2024/04/06 10:52:15;;;;;;;;;;;;;;;22.85;100.00;96037.16;5048979;28;19929;-74
2024/04/06 10:54:41;;;;;;;;;;;;;;;22.90;100.00;96038.84;5029208;28;20062;-74
2024/04/06 10:57:07;;;;;;;;;;;;;;;22.61;100.00;96039.09;5030368;28;19999;-75
2024/04/06 10:59:33;;;;;;;;;;;;;;;22.57;100.00;96030.78;5030802;28;19936;-75
2024/04/06 11:01:59;;;;;;;;;;;;;;;22.64;100.00;96030.22;5031693;28;19929;-73
2024/04/06 11:04:26;;;;;;;;;;;;;;;22.95;100.00;96024.91;5030576;28;19956;-75
2024/04/06 11:06:52;;;;;;;;;;;;;;;23.04;100.00;96022.81;5030204;28;19941;-76
2024/04/06 11:09:18;;;;;;;;;;;;;;;23.11;100.00;96025.78;5030861;28;19928;-77
2024/04/06 11:11:45;;;;;;;;;;;;;;;23.03;100.00;96017.69;5030729;28;19929;-78
2024/04/06 11:14:11;;;;;;;;;;;;;;;23.06;100.00;96009.56;5032469;28;19929;-75
2024/04/06 11:16:41;;;;;;;;;;;;;;;23.01;100.00;96012.56;5029785;28;19933;-76
2024/04/06 11:19:08;;;;;;;;;;;;;;;22.79;100.00;96005.63;5031813;28;20322;-73
2024/04/06 11:21:35;;;;;;;;;;;;;;;22.78;100.00;96001.31;5032085;28;19928;-72
2024/04/06 11:24:01;;;;;;;;;;;;;;;23.00;100.00;96000.00;5015843;28;20333;-71
2024/04/06 11:26:27;;;;;;;;;;;;;;;23.00;100.00;95996.47;5029529;28;20012;-73
2024/04/06 11:28:53;;;;;;;;;;;;;;;22.96;100.00;95996.34;5029604;28;19929;-73
2024/04/06 11:31:21;;;;;;;;;;;;;;;22.97;100.00;95986.97;5029296;28;20430;-75
2024/04/06 11:33:47;;;;;;;;;;;;;;;22.80;100.00;95990.78;5029763;28;19936;-76
2024/04/06 11:36:14;;;;;;;;;;;;;;;22.91;100.00;95996.59;5029738;28;20371;-79
2024/04/06 11:38:40;;;;;;;;;;;;;;;23.12;100.00;95991.72;5029280;28;20219;-75
2024/04/06 11:41:06;;;;;;;;;;;;;;;22.71;100.00;95981.91;5030561;28;20354;-72
2024/04/06 11:43:33;;;;;;;;;;;;;;;22.85;100.00;95981.53;5029961;28;19936;-75
2024/04/06 11:45:59;;;;;;;;;;;;;;;22.92;100.00;95981.75;5029989;28;19951;-74
2024/04/06 11:48:25;;;;;;;;;;;;;;;23.05;100.00;95980.56;5027278;28;20222;-76
2024/04/06 11:50:51;;;;;;;;;;;;;;;22.82;100.00;95972.06;5031620;28;19935;-75
2024/04/06 11:53:17;;;;;;;;;;;;;;;22.57;100.00;95965.03;5029548;28;20397;-75
2024/04/06 11:55:43;;;;;;;;;;;;;;;22.58;100.00;95983.03;5028726;28;19940;-75
2024/04/06 11:58:09;;;;;;;;;;;;;;;22.72;100.00;95977.22;5029281;28;19929;-75
2024/04/06 12:00:35;;;;;;;;;;;;;;;22.66;100.00;95981.31;5030930;28;20062;-76
2024/04/06 12:03:02;;;;;;;;;;;;;;;22.70;100.00;95982.22;5029539;28;20263;-75
2024/04/06 12:05:28;;;;;;;;;;;;;;;22.55;100.00;95991.97;5027568;28;20046;-75
2024/04/06 12:07:54;;;;;;;;;;;;;;;22.73;100.00;95992.50;5029159;28;20279;-75
2024/04/06 12:10:20;;;;;;;;;;;;;;;22.55;100.00;95985.69;5013110;28;19929;-75
2024/04/06 12:12:46;;;;;;;;;;;;;;;22.49;100.00;95985.94;5029340;28;19929;-74
2024/04/06 12:15:13;;;;;;;;;;;;;;;22.20;100.00;95997.16;5029929;28;19929;-75
2024/04/06 12:17:39;;;;;;;;;;;;;;;22.09;100.00;96001.47;5030698;28;20306;-75
2024/04/06 12:20:05;;;;;;;;;;;;;;;22.09;100.00;96001.47;5029602;28;20389;-75
2024/04/06 12:22:31;;;;;;;;;;;;;;;21.87;100.00;95999.13;5029679;28;19929;-75
2024/04/06 12:24:57;;;;;;;;;;;;;;;22.08;100.00;95997.13;5029297;28;19955;-75
2024/04/06 12:27:24;;;;;;;;;;;;;;;22.31;100.00;95995.53;5027671;28;20305;-74
2024/04/06 12:29:50;;;;;;;;;;;;;;;22.69;100.00;95999.81;5028884;28;19936;-75
2024/04/06 12:32:16;;;;;;;;;;;;;;;22.49;100.00;95991.41;5013371;28;20263;-75